»·PEaware :: FDX515 KLAX-KLAS

FDX515 :: KLAX-KLAS

FLIGHT INFORMATION

Flight Status: Arrived
Operator:
Federal Express
More flights by this operator :: More flights under this callsign
Pilot: Eugene Z. (6)
Aircraft: MCDONNELL-DOUGLAS MD-11
(MD11)
More flights by this aircraft type
Origin: KLAX Los Angeles Intl
United States
Destination: KLAS McCarran Intl
United States
More flights between these airports :: More routes between these airports
Route: LOOP6 DAG KEPEC2
File this flight plan on PilotEdge
Remarks: / V /
Altitude:
(Current/Filed)
27,000ft
Speed:
(Current/Filed)
300kts
Departed: 22-Jun-11 05:43 PM
Arrived: 22-Jun-11 06:27 PM
Distance/Time
Traveled:
206nm/0:44
Distance/Time
To Go:
Arrived

Flight Plot

Page will automatically refresh every two minutes.


Map Options




Map Legend


Flown Route
Filed Route
Departure Airport
Arrival Airport
Navaid (VOR, NDB)
Fix

Horizontal Profiles

Position Reports

Time Latitude Longitude Heading Altitude Ground
Speed
22-Jun-11 17:24 33.945801 -118.409717 262 139ft 0kts
22-Jun-11 17:25 33.945801 -118.409717 262 139ft 0kts
22-Jun-11 17:26 33.945801 -118.409717 262 139ft 0kts
22-Jun-11 17:27 33.945801 -118.409717 262 139ft 0kts
22-Jun-11 17:28 33.945801 -118.409717 262 139ft 0kts
22-Jun-11 17:29 33.945801 -118.409717 262 139ft 0kts
22-Jun-11 17:30 33.945801 -118.409717 262 139ft 0kts
22-Jun-11 17:31 33.945801 -118.409717 262 139ft 0kts
22-Jun-11 17:32 33.945801 -118.409717 262 139ft 0kts
22-Jun-11 17:34 33.945801 -118.409717 262 139ft 0kts
22-Jun-11 17:35 33.945777 -118.409031 328 139ft 2kts
22-Jun-11 17:36 33.945692 -118.408986 352 139ft 0kts
22-Jun-11 17:37 33.945698 -118.408987 352 139ft 0kts
22-Jun-11 17:38 33.945704 -118.408988 352 139ft 0kts
22-Jun-11 17:39 33.947547 -118.409043 353 139ft 18kts
22-Jun-11 17:40 33.948861 -118.404486 82 139ft 16kts
22-Jun-11 17:41 33.949476 -118.401682 357 139ft 0kts
22-Jun-11 17:42 33.949192 -118.411473 262 139ft 131kts
22-Jun-11 17:43 33.943258 -118.468817 263 2657ft 178kts
22-Jun-11 17:44 33.936144 -118.540515 263 4502ft 257kts
22-Jun-11 17:45 33.889222 -118.606123 185 6916ft 292kts
22-Jun-11 17:46 33.814774 -118.575355 124 10317ft 303kts
22-Jun-11 17:47 33.832494 -118.471307 41 11621ft 392kts
22-Jun-11 17:48 33.934699 -118.420325 28 14961ft 410kts
22-Jun-11 17:49 34.003405 -118.305295 55 17588ft 440kts
22-Jun-11 17:50 34.075022 -118.182010 55 20239ft 458kts
22-Jun-11 17:51 34.148806 -118.051404 55 22291ft 481kts
22-Jun-11 17:52 34.225397 -117.915031 55 24323ft 494kts
22-Jun-11 17:53 34.301670 -117.778712 55 26498ft 489kts
22-Jun-11 17:54 34.378155 -117.642051 55 26898ft 486kts
22-Jun-11 17:55 34.454054 -117.505425 54 26908ft 487kts
22-Jun-11 17:56 34.529699 -117.369034 54 26919ft 487kts
22-Jun-11 17:57 34.605692 -117.231588 55 26929ft 487kts
22-Jun-11 17:58 34.681037 -117.094373 55 26928ft 487kts
22-Jun-11 17:59 34.756235 -116.957412 55 26896ft 487kts
22-Jun-11 18:00 34.831307 -116.819669 55 26845ft 487kts
22-Jun-11 18:01 34.906031 -116.682100 55 26821ft 486kts
22-Jun-11 18:02 34.981539 -116.552327 43 25985ft 445kts
22-Jun-11 18:03 35.066449 -116.448554 43 24675ft 423kts
22-Jun-11 18:04 35.147733 -116.346963 43 23056ft 417kts
22-Jun-11 18:05 35.227597 -116.246714 43 21419ft 403kts
22-Jun-11 18:06 35.304683 -116.149691 43 20069ft 388kts
22-Jun-11 18:07 35.379502 -116.055250 43 18570ft 389kts
22-Jun-11 18:08 35.454358 -115.960550 43 17126ft 373kts
22-Jun-11 18:09 35.526244 -115.869661 43 15755ft 367kts
22-Jun-11 18:10 35.596389 -115.781241 44 14376ft 356kts
22-Jun-11 18:11 35.663014 -115.696329 46 13194ft 331kts
22-Jun-11 18:13 35.788577 -115.573083 5 12592ft 321kts
22-Jun-11 18:14 35.892367 -115.568192 1 12300ft 319kts
22-Jun-11 18:15 35.966577 -115.562335 14 12067ft 319kts
22-Jun-11 18:16 36.014986 -115.478501 79 11592ft 314kts
22-Jun-11 18:17 36.030183 -115.372048 89 10988ft 310kts
22-Jun-11 18:18 36.021467 -115.272571 92 10507ft 264kts
22-Jun-11 18:19 36.021461 -115.185122 92 9064ft 252kts
22-Jun-11 18:20 36.021512 -115.099891 92 7774ft 229kts
22-Jun-11 18:21 36.021578 -115.026526 92 5761ft 210kts
22-Jun-11 18:22 36.054783 -114.982033 2 3883ft 199kts
22-Jun-11 18:23 36.076396 -115.031547 265 3406ft 186kts
22-Jun-11 18:24 36.076425 -115.092753 265 2633ft 175kts
22-Jun-11 18:25 36.076370 -115.146435 270 2194ft 82kts
22-Jun-11 18:26 36.077102 -115.152372 334 2194ft 0kts
22-Jun-11 18:27 36.078255 -115.152592 98 2194ft 6kts
22-Jun-11 18:28 36.077799 -115.147035 94 2194ft 16kts
22-Jun-11 18:29 36.077530 -115.140500 90 2194ft 20kts
22-Jun-11 18:30 36.077632 -115.133880 88 2194ft 18kts
22-Jun-11 18:31 36.079079 -115.130153 359 2194ft 15kts
22-Jun-11 18:32 36.080129 -115.129469 94 2194ft 0kts
22-Jun-11 18:33 36.080129 -115.129469 94 2194ft 0kts
22-Jun-11 18:34 36.080129 -115.129469 94 2194ft 0kts
22-Jun-11 18:35 36.080129 -115.129469 94 2194ft 0kts

Navigation Log

Ident Type
Flight plan parsing failed, navigation log unavailable